Time;durP1;ratioP1;P1;durP2;ratioP2;P2;SDS_P1;SDS_P2;PMS_P1;PMS_P2;Temp;Humidity;BMP_temperature;BMP_pressure;BME280_temperature;BME280_humidity;BME280_pressure;Samples;Min_cycle;Max_cycle;Signal;HPM_P1;HPM_P2
2021/05/29 00:01:04;;;;;;;5.57;3.60;;;;;;;13.12;57.82;99450.31;3609612;39;20374;-65
2021/05/29 00:03:32;;;;;;;4.32;3.60;;;;;;;13.05;57.98;99445.97;3609625;39;20040;-65
2021/05/29 00:06:00;;;;;;;4.80;3.58;;;;;;;13.05;58.22;99446.78;3612919;39;20030;-64
2021/05/29 00:08:28;;;;;;;4.57;3.63;;;;;;;13.07;58.53;99442.13;3616119;39;20103;-64
2021/05/29 00:10:58;;;;;;;5.93;3.30;;;;;;;13.05;58.83;99445.97;3616268;39;20312;-65
2021/05/29 00:13:27;;;;;;;4.65;3.50;;;;;;;13.06;58.89;99440.47;3616476;39;20051;-64
2021/05/29 00:15:55;;;;;;;3.58;2.90;;;;;;;13.06;59.02;99439.63;3615771;39;20083;-64
2021/05/29 00:18:24;;;;;;;6.68;3.45;;;;;;;13.04;58.98;99442.50;3610785;39;20067;-64
2021/05/29 00:20:52;;;;;;;4.63;3.22;;;;;;;13.07;59.00;99447.44;3609653;39;20436;-63
2021/05/29 00:23:20;;;;;;;7.05;3.80;;;;;;;13.13;58.91;99443.16;3609972;39;20099;-64
2021/05/29 00:25:47;;;;;;;14.32;9.32;;;;;;;13.13;58.76;99443.16;3609896;39;20409;-64
2021/05/29 00:28:15;;;;;;;8.85;5.43;;;;;;;13.10;59.06;99439.09;3609132;39;20102;-63
2021/05/29 00:30:45;;;;;;;4.65;3.50;;;;;;;12.94;58.93;99436.72;3609658;39;20047;-64
2021/05/29 00:33:13;;;;;;;3.75;2.88;;;;;;;12.68;59.78;99445.25;3610342;39;20059;-63
2021/05/29 00:35:40;;;;;;;4.28;2.72;;;;;;;12.48;60.10;99439.75;3614904;39;20136;-63
2021/05/29 00:38:08;;;;;;;4.30;3.38;;;;;;;12.47;60.99;99437.31;3614138;39;20055;-64
2021/05/29 00:40:36;;;;;;;3.42;3.13;;;;;;;12.41;60.93;99444.19;3613278;39;20051;-63
2021/05/29 00:43:05;;;;;;;2.83;2.63;;;;;;;12.44;60.85;99442.97;3609516;39;20055;-64
2021/05/29 00:45:32;;;;;;;4.43;3.17;;;;;;;12.47;60.62;99437.31;3609350;39;20321;-64
2021/05/29 00:48:02;;;;;;;4.22;3.00;;;;;;;12.40;61.27;99445.19;3609438;39;20378;-64
2021/05/29 00:50:31;;;;;;;5.28;3.10;;;;;;;12.23;61.45;99441.13;3609455;39;20044;-64
2021/05/29 00:52:59;;;;;;;5.90;3.47;;;;;;;12.10;61.47;99442.63;3609615;39;20401;-64
2021/05/29 00:55:27;;;;;;;4.40;3.55;;;;;;;12.09;62.11;99441.00;3609367;39;20051;-64
2021/05/29 00:57:54;;;;;;;6.10;3.30;;;;;;;12.11;61.56;99443.44;3608801;39;20051;-64
2021/05/29 01:00:24;;;;;;;3.95;3.30;;;;;;;12.08;61.96;99433.22;3608907;39;20479;-64
2021/05/29 01:02:52;;;;;;;3.95;3.55;;;;;;;12.10;61.99;99436.50;3609249;39;20047;-64
2021/05/29 01:05:22;;;;;;;3.50;3.00;;;;;;;12.06;62.14;99435.25;3599723;39;20055;-64
2021/05/29 01:07:50;;;;;;;3.90;3.10;;;;;;;11.85;62.87;99436.84;3608905;39;20050;-64
2021/05/29 01:10:19;;;;;;;6.20;3.35;;;;;;;11.81;62.86;99434.72;3608871;39;20051;-64
2021/05/29 01:12:46;;;;;;;4.95;3.10;;;;;;;11.74;63.15;99441.75;3609236;39;20083;-64
2021/05/29 01:15:18;;;;;;;5.43;3.55;;;;;;;11.53;63.99;99445.16;3609134;39;20050;-64
2021/05/29 01:17:46;;;;;;;6.22;3.47;;;;;;;11.50;63.89;99446.31;3608820;39;20052;-64
2021/05/29 01:20:14;;;;;;;5.13;3.50;;;;;;;11.53;64.33;99447.78;3608939;39;20050;-64
2021/05/29 01:22:44;;;;;;;6.72;3.33;;;;;;;11.59;64.38;99450.53;3609279;39;20099;-64
2021/05/29 01:25:17;;;;;;;3.40;2.80;;;;;;;11.64;64.23;99450.00;3599872;39;20043;-64
2021/05/29 01:27:46;;;;;;;5.07;3.47;;;;;;;11.72;63.76;99451.72;3609127;39;20036;-65
2021/05/29 01:30:14;;;;;;;3.47;3.10;;;;;;;11.64;63.50;99447.34;3609769;39;20056;-64
2021/05/29 01:32:41;;;;;;;9.98;3.67;;;;;;;11.57;64.27;99446.41;3609487;39;20079;-64
2021/05/29 01:35:12;;;;;;;4.38;3.45;;;;;;;11.51;64.27;99455.94;3609691;39;20055;-64
2021/05/29 01:37:40;;;;;;;6.25;3.35;;;;;;;11.41;64.55;99453.53;3609022;39;20050;-64
2021/05/29 01:40:10;;;;;;;3.78;3.35;;;;;;;11.41;64.81;99460.66;3609654;39;20079;-64
2021/05/29 01:42:38;;;;;;;5.07;3.38;;;;;;;11.53;64.73;99458.38;3609314;39;20058;-64
2021/05/29 01:45:08;;;;;;;5.15;3.15;;;;;;;11.46;64.47;99454.81;3600061;39;20054;-66
2021/05/29 01:47:41;;;;;;;5.97;3.53;;;;;;;11.43;64.40;99453.38;3599438;39;20035;-64
2021/05/29 01:50:10;;;;;;;3.85;3.40;;;;;;;11.35;64.44;99459.56;3609263;39;20054;-64
2021/05/29 01:52:45;;;;;;;3.50;2.80;;;;;;;11.34;64.83;99459.72;3599834;39;20064;-64
2021/05/29 01:55:14;;;;;;;3.88;3.25;;;;;;;11.31;65.10;99455.63;3609356;39;20054;-64
2021/05/29 01:57:42;;;;;;;4.03;3.08;;;;;;;11.30;65.10;99458.44;3608557;39;20133;-64
2021/05/29 02:00:10;;;;;;;5.18;3.67;;;;;;;11.12;65.21;99461.44;3608648;39;20061;-64
2021/05/29 02:02:41;;;;;;;4.45;3.47;;;;;;;11.00;66.02;99465.53;3599396;39;20063;-64
2021/05/29 02:05:11;;;;;;;3.75;3.45;;;;;;;11.00;66.08;99455.75;3609070;39;20059;-64
2021/05/29 02:07:39;;;;;;;3.40;3.10;;;;;;;11.04;65.79;99458.88;3608589;39;20051;-64
2021/05/29 02:10:08;;;;;;;5.28;3.25;;;;;;;11.04;65.95;99462.34;3608738;39;20048;-63
2021/05/29 02:12:41;;;;;;;3.55;3.22;;;;;;;11.02;66.11;99466.16;3600394;39;20051;-64
2021/05/29 02:15:12;;;;;;;4.18;3.45;;;;;;;10.83;66.17;99463.03;3610161;39;20047;-64
2021/05/29 02:17:39;;;;;;;3.92;3.53;;;;;;;10.82;66.21;99464.03;3609718;39;20047;-64
2021/05/29 02:20:08;;;;;;;3.47;3.17;;;;;;;10.79;66.50;99463.56;3610227;39;20043;-65
2021/05/29 02:22:35;;;;;;;6.18;3.70;;;;;;;10.76;66.32;99464.72;3610172;39;20062;-65
2021/05/29 02:25:05;;;;;;;3.47;3.13;;;;;;;10.72;66.79;99462.63;3600891;39;20335;-65
2021/05/29 02:27:33;;;;;;;5.40;3.47;;;;;;;10.73;66.79;99457.13;3609899;39;20042;-65
2021/05/29 02:30:01;;;;;;;4.70;3.47;;;;;;;10.74;66.83;99469.38;3600401;39;20047;-65
2021/05/29 02:32:28;;;;;;;3.40;3.10;;;;;;;10.75;66.76;99467.56;3610253;39;20051;-65
2021/05/29 02:34:56;;;;;;;4.45;3.38;;;;;;;10.78;66.68;99468.03;3610257;39;20052;-64
2021/05/29 02:37:23;;;;;;;6.32;3.35;;;;;;;10.82;66.29;99466.69;3609782;39;20062;-65
2021/05/29 02:39:50;;;;;;;6.68;3.42;;;;;;;10.70;66.62;99469.91;3610307;39;20075;-65
2021/05/29 02:42:18;;;;;;;3.88;3.13;;;;;;;10.62;66.83;99478.72;3610224;39;20111;-65
2021/05/29 02:44:46;;;;;;;5.43;3.30;;;;;;;10.55;66.97;99475.97;3609925;39;20050;-65
2021/05/29 02:47:15;;;;;;;6.22;3.90;;;;;;;10.55;66.85;99473.31;3644724;22;20032;-64
2021/05/29 02:49:42;;;;;;;4.72;3.42;;;;;;;10.57;66.71;99475.78;3606098;39;20051;-63
2021/05/29 02:52:09;;;;;;;4.55;3.20;;;;;;;10.58;66.56;99474.78;3615009;39;20051;-62
2021/05/29 02:54:41;;;;;;;6.38;3.30;;;;;;;10.56;66.53;99469.66;3615828;39;20047;-63
2021/05/29 02:57:09;;;;;;;4.53;3.50;;;;;;;10.49;66.58;99473.19;3614897;39;20036;-62
2021/05/29 02:59:37;;;;;;;7.20;3.30;;;;;;;10.42;66.64;99475.72;3603694;39;20047;-62
2021/05/29 03:02:05;;;;;;;4.50;3.83;;;;;;;10.37;66.83;99473.59;3602878;39;20054;-62
2021/05/29 03:04:36;;;;;;;4.63;3.08;;;;;;;10.40;67.02;99483.81;3612223;39;20410;-62
2021/05/29 03:07:05;;;;;;;5.63;3.30;;;;;;;10.36;66.78;99489.63;3611087;39;20300;-63
2021/05/29 03:09:33;;;;;;;5.35;3.22;;;;;;;10.35;67.04;99488.81;3593241;39;20054;-63
2021/05/29 03:12:01;;;;;;;4.15;3.38;;;;;;;10.36;67.08;99493.09;3601279;39;20039;-63
2021/05/29 03:14:28;;;;;;;7.30;3.45;;;;;;;10.26;66.92;99500.44;3610312;39;20320;-62
2021/05/29 03:16:56;;;;;;;5.03;2.97;;;;;;;10.17;66.89;99504.09;3600713;39;20047;-63
2021/05/29 03:19:23;;;;;;;4.78;4.20;;;;;;;9.91;67.32;99501.69;3610153;39;20043;-62
2021/05/29 03:21:51;;;;;;;3.83;3.53;;;;;;;9.64;68.33;99505.59;3610371;39;20044;-62
2021/05/29 03:24:19;;;;;;;4.43;3.80;;;;;;;9.64;68.69;99508.25;3609769;39;20316;-63
2021/05/29 03:26:46;;;;;;;6.57;3.85;;;;;;;9.65;68.55;99504.59;3600532;39;20044;-62
2021/05/29 03:29:14;;;;;;;4.97;4.18;;;;;;;9.65;68.82;99507.25;3614202;39;20048;-63
2021/05/29 03:31:41;;;;;;;8.30;4.10;;;;;;;9.72;69.05;99510.03;3613757;39;20035;-63
2021/05/29 03:34:09;;;;;;;5.00;4.15;;;;;;;9.82;69.02;99508.00;3611498;39;20067;-62
2021/05/29 03:36:37;;;;;;;4.47;3.70;;;;;;;9.88;68.45;99510.81;3610276;39;20093;-64
2021/05/29 03:39:06;;;;;;;5.60;3.70;;;;;;;9.77;68.46;99508.53;3600110;39;20048;-61
2021/05/29 03:41:33;;;;;;;5.45;3.50;;;;;;;9.69;68.71;99516.47;3609813;39;20364;-61
2021/05/29 03:44:01;;;;;;;10.05;4.10;;;;;;;9.76;68.11;99516.63;3610130;39;20300;-61
2021/05/29 03:46:28;;;;;;;4.22;3.60;;;;;;;9.59;68.22;99524.59;3609906;39;20039;-62
2021/05/29 03:48:56;;;;;;;4.72;4.05;;;;;;;9.62;68.64;99523.41;3609801;39;20040;-62
2021/05/29 03:51:23;;;;;;;4.78;4.18;;;;;;;9.66;68.67;99533.47;3610167;39;20056;-62
2021/05/29 03:53:50;;;;;;;5.90;4.60;;;;;;;9.75;68.59;99533.44;3610055;39;20047;-62
2021/05/29 03:56:19;;;;;;;5.72;3.42;;;;;;;9.84;68.09;99529.81;3609762;39;20301;-63
2021/05/29 03:58:46;;;;;;;5.10;3.50;;;;;;;9.89;68.04;99527.47;3609517;39;20060;-64
2021/05/29 04:01:14;;;;;;;5.10;3.55;;;;;;;10.00;67.64;99535.03;3609490;39;20067;-63
2021/05/29 04:03:41;;;;;;;5.32;3.80;;;;;;;10.08;67.39;99528.88;3609610;39;20345;-64
2021/05/29 04:06:09;;;;;;;5.43;3.30;;;;;;;9.99;67.60;99535.19;3609576;39;20043;-62
2021/05/29 04:08:36;;;;;;;5.93;3.65;;;;;;;9.86;67.39;99533.09;3599478;39;20043;-63
2021/05/29 04:11:03;;;;;;;6.15;3.58;;;;;;;9.83;67.88;99534.25;3609593;39;20076;-63
2021/05/29 04:13:31;;;;;;;4.38;3.70;;;;;;;9.94;67.88;99533.06;3609494;39;20047;-63
2021/05/29 04:15:59;;;;;;;10.52;7.50;;;;;;;10.02;67.15;99534.84;3609695;39;20032;-63
2021/05/29 04:18:26;;;;;;;6.22;3.58;;;;;;;9.89;67.35;99535.41;3609144;39;20059;-63
2021/05/29 04:20:56;;;;;;;4.88;3.28;;;;;;;9.92;67.71;99535.88;3609459;39;20050;-63
2021/05/29 04:23:24;;;;;;;6.95;3.60;;;;;;;10.10;67.38;99537.47;3609704;39;20316;-63
2021/05/29 04:25:51;;;;;;;4.00;3.60;;;;;;;10.22;66.77;99532.63;3609309;39;20058;-62
2021/05/29 04:28:18;;;;;;;7.93;3.80;;;;;;;10.35;66.58;99531.09;3609531;39;20055;-63
2021/05/29 04:30:47;;;;;;;8.20;3.60;;;;;;;10.32;66.51;99530.59;3610086;39;20023;-63
2021/05/29 04:33:14;;;;;;;5.50;3.30;;;;;;;10.32;66.31;99531.44;3600569;39;20070;-63
2021/05/29 04:35:42;;;;;;;6.00;3.90;;;;;;;10.35;66.60;99533.72;3609943;39;20047;-64
2021/05/29 04:38:10;;;;;;;4.88;3.90;;;;;;;10.40;66.54;99534.03;3600053;39;20039;-64
2021/05/29 04:40:37;;;;;;;4.88;3.42;;;;;;;10.47;66.45;99536.81;3609960;39;20055;-62
2021/05/29 04:43:04;;;;;;;4.25;3.58;;;;;;;10.53;66.20;99530.84;3609830;39;20493;-63
2021/05/29 04:45:32;;;;;;;4.35;3.92;;;;;;;10.53;65.84;99540.56;3609494;39;20043;-64
2021/05/29 04:48:00;;;;;;;6.00;4.30;;;;;;;10.33;66.37;99537.56;3609221;39;20039;-64
2021/05/29 04:50:28;;;;;;;11.13;5.50;;;;;;;10.38;66.43;99537.84;3609694;39;20394;-62
2021/05/29 04:52:57;;;;;;;19.45;8.05;;;;;;;10.42;66.24;99544.44;3600030;39;20058;-64
2021/05/29 04:55:24;;;;;;;16.52;6.20;;;;;;;10.55;66.05;99546.53;3610059;39;20392;-62
2021/05/29 04:57:52;;;;;;;11.65;5.95;;;;;;;10.60;65.99;99536.25;3599599;39;20044;-64
2021/05/29 05:00:20;;;;;;;17.35;7.07;;;;;;;10.74;65.68;99546.06;3609539;39;20031;-63
2021/05/29 05:02:47;;;;;;;9.43;4.57;;;;;;;10.75;65.53;99537.13;3610041;39;20408;-63
2021/05/29 05:05:15;;;;;;;12.70;4.68;;;;;;;10.61;65.77;99543.16;3609432;39;20057;-63
2021/05/29 05:07:43;;;;;;;7.07;4.15;;;;;;;10.72;65.86;99542.78;3599345;39;20043;-63
2021/05/29 05:10:12;;;;;;;8.65;4.32;;;;;;;10.87;65.28;99543.66;3609398;39;20056;-62
2021/05/29 05:12:39;;;;;;;6.43;4.40;;;;;;;10.95;65.19;99545.44;3609166;39;20352;-63
2021/05/29 05:15:09;;;;;;;6.68;4.90;;;;;;;11.01;64.52;99543.88;3599879;39;20051;-63
2021/05/29 05:17:36;;;;;;;8.35;5.32;;;;;;;11.03;64.32;99548.00;3608665;39;20058;-63
2021/05/29 05:20:05;;;;;;;7.80;4.45;;;;;;;11.13;64.50;99542.47;3609696;39;20055;-63
2021/05/29 05:22:33;;;;;;;6.30;4.68;;;;;;;11.22;64.12;99544.03;3609859;39;20365;-63
2021/05/29 05:25:01;;;;;;;5.43;3.95;;;;;;;11.26;63.74;99550.63;3609457;39;20047;-63
2021/05/29 05:27:29;;;;;;;6.15;4.30;;;;;;;11.24;63.16;99549.19;3609291;39;20064;-63
2021/05/29 05:29:56;;;;;;;6.22;4.43;;;;;;;11.26;63.16;99545.31;3609430;39;20040;-64
2021/05/29 05:32:24;;;;;;;4.45;3.60;;;;;;;11.37;63.00;99550.19;3609558;39;20436;-63
2021/05/29 05:34:54;;;;;;;4.65;4.05;;;;;;;11.52;62.69;99554.72;3609043;39;20047;-61
2021/05/29 05:37:22;;;;;;;5.38;4.15;;;;;;;11.58;62.36;99553.97;3608695;39;20100;-62
2021/05/29 05:39:50;;;;;;;6.78;4.28;;;;;;;11.54;61.93;99560.63;3609155;39;20056;-63
2021/05/29 05:42:18;;;;;;;4.13;3.70;;;;;;;11.58;62.12;99554.78;3608911;39;20043;-64
2021/05/29 05:44:45;;;;;;;8.70;5.55;;;;;;;11.68;62.05;99572.28;3608947;39;20051;-64
2021/05/29 05:47:13;;;;;;;26.45;18.25;;;;;;;11.75;61.88;99562.56;3609591;39;20036;-63
2021/05/29 05:49:40;;;;;;;7.63;4.63;;;;;;;11.87;61.88;99569.09;3610394;39;20363;-64
2021/05/29 05:52:08;;;;;;;5.65;3.95;;;;;;;11.85;61.69;99569.31;3610381;39;20047;-64
2021/05/29 05:54:35;;;;;;;7.05;4.53;;;;;;;11.96;61.43;99575.13;3610690;39;20691;-63
2021/05/29 05:57:04;;;;;;;5.85;5.28;;;;;;;12.00;61.52;99571.13;3610364;39;20052;-63
2021/05/29 05:59:31;;;;;;;5.47;4.63;;;;;;;12.14;61.13;99570.31;3610522;39;20058;-64
2021/05/29 06:01:59;;;;;;;4.97;4.25;;;;;;;12.23;60.96;99569.19;3610544;39;20052;-63
2021/05/29 06:04:27;;;;;;;6.55;4.80;;;;;;;12.33;61.15;99572.38;3601115;39;20047;-63
2021/05/29 06:06:54;;;;;;;5.57;4.28;;;;;;;12.46;60.80;99570.91;3610345;39;20060;-64
2021/05/29 06:09:22;;;;;;;5.78;4.88;;;;;;;12.60;60.38;99575.34;3610866;39;20052;-65
2021/05/29 06:11:49;;;;;;;6.10;5.32;;;;;;;12.72;60.17;99576.50;3610462;39;20047;-64
2021/05/29 06:19:55;;;;;;;5.97;5.10;;;;;;;12.99;59.25;99576.78;3602715;39;20100;-64
2021/05/29 06:22:23;;;;;;;8.35;4.43;;;;;;;13.10;59.15;99585.06;3611656;39;20051;-65
2021/05/29 06:24:50;;;;;;;5.63;4.13;;;;;;;13.23;59.00;99587.06;3602375;39;20409;-62
2021/05/29 06:27:18;;;;;;;4.55;4.13;;;;;;;13.38;58.37;99577.16;3611097;39;20083;-65
2021/05/29 06:29:46;;;;;;;3.60;3.08;;;;;;;13.44;57.22;99578.25;3611247;39;20051;-63
2021/05/29 06:32:14;;;;;;;7.07;4.18;;;;;;;13.45;57.38;99579.88;3610675;39;20028;-63
2021/05/29 06:34:41;;;;;;;5.35;3.90;;;;;;;13.60;57.25;99585.13;3610568;39;20131;-63
2021/05/29 06:37:08;;;;;;;4.55;3.67;;;;;;;13.72;56.95;99577.44;3610697;39;21029;-62
2021/05/29 06:39:37;;;;;;;4.38;3.78;;;;;;;13.76;56.21;99576.84;3610450;39;20376;-63
2021/05/29 06:42:05;;;;;;;3.30;2.97;;;;;;;13.77;56.52;99575.84;3610522;39;20079;-63
2021/05/29 06:44:33;;;;;;;4.20;3.00;;;;;;;13.87;56.12;99580.78;3610820;39;20324;-64
2021/05/29 06:47:03;;;;;;;3.80;3.50;;;;;;;13.97;55.75;99583.13;3610149;39;20423;-63
2021/05/29 06:49:31;;;;;;;5.03;3.55;;;;;;;13.98;55.33;99582.09;3610424;39;20093;-63
2021/05/29 06:52:01;;;;;;;4.63;2.92;;;;;;;13.94;55.62;99580.84;3610457;39;20043;-63
2021/05/29 06:54:40;;;;;;;4.80;2.90;;;;;;;13.88;55.27;99580.63;3600925;39;20384;-63
2021/05/29 06:59:54;;;;;;;6.90;4.82;;;;;;;14.17;54.87;99589.38;3610494;39;20058;-62
2021/05/29 07:02:22;;;;;;;5.65;5.05;;;;;;;14.27;54.45;99587.16;3610567;39;20047;-62
2021/05/29 07:04:51;;;;;;;2.55;2.33;;;;;;;14.19;54.71;99592.63;3609971;39;20055;-63
2021/05/29 07:07:19;;;;;;;4.43;2.40;;;;;;;14.29;54.18;99597.63;3609802;39;20144;-64
2021/05/29 07:09:46;;;;;;;3.95;3.28;;;;;;;14.35;53.95;99589.66;3610007;39;20084;-64
2021/05/29 07:12:14;;;;;;;3.00;2.55;;;;;;;14.47;53.74;99594.41;3610082;39;20043;-63
2021/05/29 07:14:41;;;;;;;6.38;5.30;;;;;;;14.61;53.23;99596.13;3609609;39;20054;-63
2021/05/29 07:17:09;;;;;;;16.35;13.18;;;;;;;14.65;53.04;99592.03;3608858;39;20385;-63
2021/05/29 07:19:37;;;;;;;10.52;8.20;;;;;;;14.74;52.70;99588.19;3609585;39;20051;-62
2021/05/29 07:22:05;;;;;;;2.92;2.63;;;;;;;14.81;51.44;99594.34;3610527;39;20043;-62
2021/05/29 07:24:35;;;;;;;3.08;2.72;;;;;;;14.87;52.03;99584.75;3610096;39;20258;-62
2021/05/29 07:27:03;;;;;;;3.10;2.45;;;;;;;14.91;51.80;99591.31;3609626;39;20046;-62
2021/05/29 07:29:33;;;;;;;5.13;3.17;;;;;;;15.04;51.23;99587.84;3609735;39;20048;-63
2021/05/29 07:32:00;;;;;;;5.57;3.90;;;;;;;15.14;50.55;99593.59;3609791;39;20039;-63
2021/05/29 07:34:28;;;;;;;6.13;3.08;;;;;;;15.23;50.37;99600.38;3611405;39;20051;-63
2021/05/29 07:36:56;;;;;;;6.03;4.95;;;;;;;15.28;49.89;99591.78;3609615;39;20054;-62
2021/05/29 07:39:24;;;;;;;10.52;8.23;;;;;;;15.30;50.26;99589.72;3609819;39;20400;-63
2021/05/29 07:41:59;;;;;;;5.25;4.68;;;;;;;15.44;50.08;99587.91;3611230;39;20439;-63
2021/05/29 07:44:27;;;;;;;5.72;4.22;;;;;;;15.52;49.35;99585.84;3612082;39;20100;-63
2021/05/29 07:47:01;;;;;;;7.13;3.72;;;;;;;15.63;49.91;99594.22;3611241;39;20045;-63
2021/05/29 07:49:29;;;;;;;6.03;4.97;;;;;;;15.76;49.79;99589.75;3609620;39;20051;-64
2021/05/29 07:52:11;;;;;;;5.00;4.40;;;;;;;15.97;49.12;99585.22;3611061;39;20048;-64
2021/05/29 07:54:43;;;;;;;4.80;2.00;;;;;;;16.03;48.66;99581.69;3602128;39;20039;-64
2021/05/29 07:57:11;;;;;;;2.75;2.45;;;;;;;16.01;48.82;99584.59;3602521;39;20470;-64
2021/05/29 07:59:43;;;;;;;2.30;2.10;;;;;;;16.14;48.77;99578.41;3611258;39;20063;-63
2021/05/29 08:02:11;;;;;;;2.20;2.00;;;;;;;16.27;47.40;99581.00;3610837;39;20050;-63
2021/05/29 08:04:39;;;;;;;3.85;2.80;;;;;;;16.25;46.36;99588.44;3609520;39;20046;-62
2021/05/29 08:07:06;;;;;;;4.40;2.17;;;;;;;16.33;45.89;99590.03;3610150;39;20035;-62
2021/05/29 08:09:35;;;;;;;3.38;1.85;;;;;;;16.37;45.56;99591.25;3609701;39;20068;-64
2021/05/29 08:12:03;;;;;;;1.85;1.50;;;;;;;16.33;45.43;99590.03;3609597;39;20044;-63
2021/05/29 08:14:34;;;;;;;2.55;2.10;;;;;;;16.34;45.66;99583.66;3600056;39;20080;-63
2021/05/29 08:17:02;;;;;;;3.05;2.10;;;;;;;16.47;44.86;99582.78;3608885;39;20047;-63
2021/05/29 08:19:30;;;;;;;2.70;1.77;;;;;;;16.60;44.60;99580.88;3609365;39;20209;-63
2021/05/29 08:22:01;;;;;;;1.75;1.50;;;;;;;16.79;43.65;99589.03;3600702;39;20043;-63
2021/05/29 08:24:29;;;;;;;2.78;2.30;;;;;;;16.76;42.98;99584.94;3609733;39;20040;-64
2021/05/29 08:27:02;;;;;;;2.35;2.00;;;;;;;16.79;43.89;99583.69;3600050;39;20337;-64
2021/05/29 08:29:30;;;;;;;3.40;1.90;;;;;;;16.78;43.92;99585.56;3609593;39;20389;-64
2021/05/29 08:31:57;;;;;;;5.80;2.13;;;;;;;16.60;43.77;99578.22;3609672;39;20051;-63
2021/05/29 08:34:25;;;;;;;1.80;1.70;;;;;;;16.69;44.46;99580.63;3609532;39;20075;-65
2021/05/29 08:36:52;;;;;;;3.05;1.85;;;;;;;16.91;42.93;99590.00;3609521;39;20075;-62
2021/05/29 08:39:19;;;;;;;2.30;2.10;;;;;;;16.81;43.73;99585.13;3610036;39;20425;-62
2021/05/29 08:41:47;;;;;;;2.20;1.90;;;;;;;16.71;44.84;99595.41;3600224;39;20150;-62
2021/05/29 08:44:16;;;;;;;3.30;2.17;;;;;;;16.77;43.69;99591.91;3609763;39;20099;-62
2021/05/29 08:46:43;;;;;;;4.75;3.70;;;;;;;16.79;43.83;99586.38;3599612;39;20051;-62
2021/05/29 08:49:11;;;;;;;4.35;2.70;;;;;;;16.80;42.62;99591.50;3643240;22;20043;-65
2021/05/29 08:51:38;;;;;;;3.53;2.78;;;;;;;16.89;42.56;99592.06;3609196;39;20048;-65
2021/05/29 08:54:05;;;;;;;3.20;2.28;;;;;;;17.05;42.21;99596.88;3609237;39;20057;-66
2021/05/29 08:56:32;;;;;;;4.22;2.50;;;;;;;16.96;42.39;99600.03;3609058;39;20047;-65
2021/05/29 08:59:00;;;;;;;3.70;2.63;;;;;;;16.94;42.80;99592.25;3609125;39;20074;-66
2021/05/29 09:01:29;;;;;;;2.25;1.85;;;;;;;17.10;42.78;99590.91;3609083;39;20050;-66
2021/05/29 09:03:59;;;;;;;3.15;1.98;;;;;;;17.21;42.37;99592.06;3608924;39;20046;-66
2021/05/29 09:06:42;;;;;;;2.35;1.52;;;;;;;17.20;42.48;99595.78;3610036;39;20058;-66
2021/05/29 09:09:11;;;;;;;4.68;1.70;;;;;;;17.22;42.18;99599.03;3598246;39;20048;-65
2021/05/29 09:11:49;;;;;;;3.47;2.53;;;;;;;17.36;42.21;99589.09;3608931;39;20047;-65
2021/05/29 09:14:37;;;;;;;5.10;1.98;;;;;;;17.63;41.01;99592.34;3608979;39;20054;-66
2021/05/29 09:17:09;;;;;;;1.80;1.25;;;;;;;17.45;40.54;99595.81;3608545;39;20050;-65
2021/05/29 09:19:52;;;;;;;2.10;1.52;;;;;;;17.47;39.65;99599.06;3609020;39;20054;-66
2021/05/29 09:22:22;;;;;;;1.60;1.50;;;;;;;17.34;40.32;99600.78;3608832;39;20056;-65
2021/05/29 09:25:01;;;;;;;2.35;1.58;;;;;;;17.28;40.43;99606.22;3608847;39;20104;-65
2021/05/29 09:27:29;;;;;;;2.97;1.55;;;;;;;17.42;39.86;99604.25;3599201;39;20079;-65
2021/05/29 09:29:57;;;;;;;1.95;1.52;;;;;;;17.51;37.99;99601.09;3608743;39;20047;-66
2021/05/29 09:32:25;;;;;;;4.45;1.60;;;;;;;17.57;37.65;99607.41;3608880;39;20048;-65
2021/05/29 09:34:53;;;;;;;2.33;1.80;;;;;;;17.41;37.69;99615.97;3608793;39;20053;-65
2021/05/29 09:37:23;;;;;;;2.40;1.60;;;;;;;17.24;37.26;99608.50;3608680;39;20046;-65
2021/05/29 09:39:52;;;;;;;1.85;1.58;;;;;;;17.34;36.74;99611.47;3608883;39;20071;-65
2021/05/29 09:42:25;;;;;;;2.78;1.52;;;;;;;17.52;36.22;99615.28;3608926;39;20047;-65
2021/05/29 09:44:53;;;;;;;2.35;1.67;;;;;;;17.67;36.31;99612.25;3608855;39;20659;-65
2021/05/29 09:47:24;;;;;;;4.97;1.98;;;;;;;17.71;36.76;99618.81;3608435;39;20084;-65
2021/05/29 09:49:54;;;;;;;4.22;1.58;;;;;;;17.68;35.67;99620.09;3608823;39;20050;-65
2021/05/29 09:52:27;;;;;;;2.75;1.65;;;;;;;17.65;35.91;99619.69;3599319;39;20054;-65
2021/05/29 09:54:56;;;;;;;3.10;1.50;;;;;;;17.74;35.94;99602.34;3608965;39;20329;-63
2021/05/29 09:57:23;;;;;;;4.20;1.50;;;;;;;17.59;36.63;99618.69;3608512;39;20043;-65
2021/05/29 09:59:55;;;;;;;2.40;1.70;;;;;;;17.60;37.15;99617.69;3609026;39;20088;-64
2021/05/29 10:02:23;;;;;;;3.22;1.70;;;;;;;17.54;36.73;99615.88;3608945;39;20308;-65
2021/05/29 10:04:54;;;;;;;3.17;1.77;;;;;;;17.70;36.51;99609.97;3599383;39;20129;-64
2021/05/29 10:07:24;;;;;;;4.13;1.70;;;;;;;17.94;35.69;99616.38;3608503;39;20840;-64
2021/05/29 10:09:52;;;;;;;2.17;1.40;;;;;;;18.06;35.22;99619.94;3608579;39;20051;-64
2021/05/29 10:12:19;;;;;;;3.33;1.95;;;;;;;18.17;35.16;99612.25;3608428;39;20052;-64
2021/05/29 10:14:47;;;;;;;2.15;1.33;;;;;;;18.33;35.26;99614.34;3608491;39;20047;-65
2021/05/29 10:17:14;;;;;;;1.80;1.65;;;;;;;18.42;35.31;99618.34;3608685;39;20072;-65
2021/05/29 10:19:44;;;;;;;2.17;1.30;;;;;;;18.73;34.30;99616.53;3608743;39;20054;-64
2021/05/29 10:22:13;;;;;;;3.60;1.50;;;;;;;18.95;34.19;99611.53;3608629;39;20052;-64
2021/05/29 10:24:44;;;;;;;1.70;1.30;;;;;;;19.00;33.76;99606.28;3608616;39;20414;-64
2021/05/29 10:27:12;;;;;;;3.00;1.58;;;;;;;19.07;34.06;99608.91;3608322;39;20083;-65
2021/05/29 10:29:41;;;;;;;1.10;1.02;;;;;;;19.11;32.47;99608.19;3608428;39;20391;-64
2021/05/29 10:32:19;;;;;;;2.55;2.10;;;;;;;19.10;32.46;99601.19;3608924;39;20055;-65
2021/05/29 10:34:55;;;;;;;2.13;1.17;;;;;;;19.17;33.55;99609.94;3610179;39;20051;-65
2021/05/29 10:37:36;;;;;;;1.10;1.00;;;;;;;19.10;33.26;99611.91;3610540;39;20067;-64
2021/05/29 10:40:30;;;;;;;1.15;1.05;;;;;;;18.75;34.71;99599.22;3610390;39;20052;-64
2021/05/29 10:43:08;;;;;;;2.55;1.40;;;;;;;18.85;34.94;99606.69;3610119;39;20047;-64
2021/05/29 10:45:36;;;;;;;2.25;1.10;;;;;;;18.91;34.46;99605.81;3610140;39;20047;-65
2021/05/29 10:48:07;;;;;;;1.60;1.10;;;;;;;18.83;33.47;99599.94;3600523;39;20292;-64
2021/05/29 10:50:54;;;;;;;1.90;1.70;;;;;;;18.98;33.63;99598.50;3610221;39;20044;-64
2021/05/29 10:53:39;;;;;;;1.20;1.10;;;;;;;18.99;33.67;99604.66;3610074;39;20349;-65
2021/05/29 10:56:32;;;;;;;1.23;0.95;;;;;;;18.80;33.61;99595.84;3600373;39;20076;-65
2021/05/29 10:59:10;;;;;;;2.28;1.30;;;;;;;19.04;33.42;99596.75;3609596;39;20051;-64
2021/05/29 11:02:00;;;;;;;3.28;1.00;;;;;;;19.37;32.90;99590.06;3610060;39;20046;-65
2021/05/29 11:04:27;;;;;;;1.38;1.17;;;;;;;19.60;32.10;99592.78;3610155;39;20416;-65
2021/05/29 11:06:57;;;;;;;1.20;0.75;;;;;;;19.58;31.88;99584.16;3609738;39;20031;-66
2021/05/29 11:09:52;;;;;;;5.53;1.40;;;;;;;19.62;32.62;99584.53;3609719;39;20079;-64
2021/05/29 11:12:20;;;;;;;2.85;1.00;;;;;;;19.44;32.47;99582.75;3609817;39;20084;-64
2021/05/29 11:14:54;;;;;;;1.17;1.08;;;;;;;19.17;32.65;99583.16;3610213;39;20051;-64
2021/05/29 11:17:23;;;;;;;2.08;1.20;;;;;;;19.42;33.21;99585.66;3609644;39;20054;-64
2021/05/29 11:20:07;;;;;;;1.35;1.05;;;;;;;19.35;33.22;99593.00;3609743;39;20031;-63
2021/05/29 11:22:43;;;;;;;1.52;1.20;;;;;;;19.26;33.34;99576.41;3609680;39;20043;-64
2021/05/29 11:25:14;;;;;;;2.25;1.08;;;;;;;19.38;33.36;99586.34;3609677;39;20058;-64
2021/05/29 11:27:46;;;;;;;1.75;1.10;;;;;;;19.62;32.96;99580.00;3609545;39;20036;-65
2021/05/29 11:30:15;;;;;;;4.65;2.47;;;;;;;19.67;32.79;99576.59;3609752;39;20056;-65
2021/05/29 11:32:47;;;;;;;1.25;1.15;;;;;;;19.92;32.60;99582.56;3609701;39;20050;-65
2021/05/29 11:35:20;;;;;;;1.40;1.27;;;;;;;20.09;31.82;99571.94;3609539;39;20290;-65
2021/05/29 11:38:10;;;;;;;2.42;1.30;;;;;;;20.23;31.75;99575.16;3609338;39;20110;-65
2021/05/29 11:40:46;;;;;;;1.58;1.23;;;;;;;20.28;31.31;99570.69;3609876;39;20051;-66
2021/05/29 11:43:16;;;;;;;1.65;1.23;;;;;;;20.26;31.69;99574.69;3609238;39;20083;-64
2021/05/29 11:45:44;;;;;;;3.20;1.10;;;;;;;20.27;31.37;99569.06;3609637;39;20043;-64
2021/05/29 11:48:12;;;;;;;0.85;0.85;;;;;;;20.39;31.58;99570.91;3609696;39;20035;-64
2021/05/29 11:51:08;;;;;;;1.58;0.90;;;;;;;20.65;31.40;99564.19;3599994;39;20047;-64
2021/05/29 11:53:30;;;;;;;1.85;0.90;;;;;;;20.85;30.90;99569.94;3609612;39;20051;-64